Time;durP1;ratioP1;P1;durP2;ratioP2;P2;SDS_P1;SDS_P2;PMS_P1;PMS_P2;Temp;Humidity;BMP_temperature;BMP_pressure;BME280_temperature;BME280_humidity;BME280_pressure;Samples;Min_cycle;Max_cycle;Signal;HPM_P1;HPM_P2
2021/07/08 00:00:27;;;;;;;14.60;5.15;;;16.30;84.80;;;;;;4972294;28;20528;-84
2021/07/08 00:02:52;;;;;;;15.35;5.47;;;16.10;85.20;;;;;;4972304;28;20174;-83
2021/07/08 00:05:22;;;;;;;13.95;4.78;;;16.20;85.40;;;;;;4970390;28;20206;-83
2021/07/08 00:07:48;;;;;;;11.27;4.07;;;16.20;85.20;;;;;;4971413;28;20693;-83
2021/07/08 00:10:18;;;;;;;11.40;4.50;;;16.30;85.00;;;;;;4970228;28;20182;-83
2021/07/08 00:12:44;;;;;;;13.48;4.95;;;16.30;84.50;;;;;;4971645;28;20209;-83
2021/07/08 00:15:15;;;;;;;17.88;4.28;;;16.30;84.30;;;;;;4970237;28;20646;-83
2021/07/08 00:17:41;;;;;;;16.05;4.93;;;16.50;84.00;;;;;;5002591;28;20727;-83
2021/07/08 00:20:13;;;;;;;15.95;5.45;;;16.50;83.60;;;;;;4971372;28;20183;-83
2021/07/08 00:22:39;;;;;;;14.25;4.78;;;16.50;83.50;;;;;;4971393;28;20237;-83
2021/07/08 00:25:09;;;;;;;17.38;5.63;;;16.50;84.50;;;;;;4971339;28;20230;-83
2021/07/08 00:27:35;;;;;;;17.08;5.65;;;16.20;85.70;;;;;;4969832;28;20218;-83
2021/07/08 00:30:01;;;;;;;19.02;6.55;;;16.20;86.00;;;;;;5002523;28;20175;-83
2021/07/08 00:32:27;;;;;;;17.70;6.05;;;16.20;86.30;;;;;;5002480;28;20206;-83
2021/07/08 00:34:52;;;;;;;14.48;5.68;;;16.20;86.20;;;;;;4971215;28;20233;-83
2021/07/08 00:37:18;;;;;;;11.57;5.35;;;16.20;86.30;;;;;;5002334;28;20567;-83
2021/07/08 00:39:44;;;;;;;15.15;5.22;;;16.30;86.20;;;;;;4969928;28;20782;-83
2021/07/08 00:42:09;;;;;;;14.60;6.18;;;16.30;86.10;;;;;;4969918;28;20182;-83
2021/07/08 00:44:35;;;;;;;9.43;5.40;;;16.30;85.90;;;;;;4969727;28;20647;-83
2021/07/08 00:47:01;;;;;;;17.33;5.07;;;16.30;85.70;;;;;;4971044;28;20199;-83
2021/07/08 00:49:26;;;;;;;12.73;5.00;;;16.30;85.70;;;;;;4969811;28;20530;-83
2021/07/08 00:51:52;;;;;;;12.27;5.20;;;16.30;85.60;;;;;;5002212;28;20171;-83
2021/07/08 00:54:17;;;;;;;11.05;4.70;;;16.30;85.30;;;;;;4969674;28;20685;-83
2021/07/08 00:56:43;;;;;;;9.73;4.32;;;16.40;85.10;;;;;;4969618;28;20198;-83
2021/07/08 00:59:12;;;;;;;16.23;4.25;;;16.40;84.60;;;;;;4969727;28;20190;-83
2021/07/08 01:01:40;;;;;;;8.60;3.83;;;16.40;84.10;;;;;;4969635;28;20556;-83
2021/07/08 01:04:06;;;;;;;9.23;4.20;;;16.40;83.60;;;;;;4970869;28;20171;-83
2021/07/08 01:06:32;;;;;;;21.17;4.82;;;16.50;83.50;;;;;;5001888;28;20255;-83
2021/07/08 01:09:00;;;;;;;7.97;4.13;;;16.40;83.70;;;;;;4974207;28;20167;-83
2021/07/08 01:11:27;;;;;;;11.05;4.32;;;16.40;83.70;;;;;;4974137;28;20254;-83
2021/07/08 01:13:54;;;;;;;12.20;4.78;;;16.40;83.50;;;;;;4972898;28;20244;-83
2021/07/08 01:16:19;;;;;;;15.18;4.90;;;16.50;83.20;;;;;;4974014;28;20195;-83
2021/07/08 01:18:45;;;;;;;9.88;4.80;;;16.50;82.90;;;;;;4972721;28;20557;-83
2021/07/08 01:21:29;;;;;;;18.50;5.40;;;16.40;83.20;;;;;;4973966;28;20553;-83
2021/07/08 01:23:57;;;;;;;18.83;5.82;;;16.40;83.80;;;;;;4973945;28;20171;-83
2021/07/08 01:26:23;;;;;;;16.15;6.32;;;16.40;84.10;;;;;;4973607;28;20210;-83
2021/07/08 01:28:50;;;;;;;14.68;6.05;;;16.40;84.70;;;;;;4972760;28;20596;-84
2021/07/08 01:31:16;;;;;;;18.10;6.40;;;16.50;85.00;;;;;;4973823;28;20254;-83
2021/07/08 01:33:41;;;;;;;19.90;6.60;;;16.50;85.50;;;;;;5005047;28;20179;-83
2021/07/08 01:36:07;;;;;;;10.25;5.60;;;16.50;85.70;;;;;;4972517;28;20199;-83
2021/07/08 01:38:33;;;;;;;22.13;6.30;;;16.50;85.80;;;;;;4972429;28;20713;-83
2021/07/08 01:40:58;;;;;;;17.42;5.78;;;16.30;85.90;;;;;;4973621;28;20199;-83
2021/07/08 01:43:24;;;;;;;18.23;5.45;;;16.30;85.90;;;;;;4973718;28;20179;-83
2021/07/08 01:45:50;;;;;;;14.13;6.10;;;16.30;85.70;;;;;;4973349;28;20203;-83
2021/07/08 01:48:15;;;;;;;7.60;5.07;;;16.40;85.40;;;;;;4972428;28;20175;-83
2021/07/08 01:50:41;;;;;;;20.38;5.85;;;16.40;85.20;;;;;;5004705;28;20175;-83
2021/07/08 01:53:07;;;;;;;15.95;5.35;;;16.40;85.00;;;;;;4972198;28;20269;-83
2021/07/08 01:55:32;;;;;;;11.77;5.80;;;16.50;84.70;;;;;;5004788;28;20179;-83
2021/07/08 01:58:00;;;;;;;12.98;5.38;;;16.50;84.70;;;;;;4973295;28;20195;-83
2021/07/08 02:00:26;;;;;;;14.43;5.95;;;16.40;84.60;;;;;;4973647;28;20175;-83
2021/07/08 02:02:53;;;;;;;15.38;6.10;;;16.50;84.60;;;;;;4972104;28;20685;-83
2021/07/08 02:05:19;;;;;;;18.80;7.65;;;16.50;84.70;;;;;;4972049;28;20588;-83
2021/07/08 02:07:45;;;;;;;19.58;8.43;;;16.30;86.80;;;;;;4973176;28;20696;-82
2021/07/08 02:10:12;;;;;;;46.97;10.18;;;16.10;87.40;;;;;;4971999;28;20182;-83
2021/07/08 02:12:39;;;;;;;38.13;8.68;;;16.00;88.10;;;;;;4971968;28;20257;-83
2021/07/08 02:15:07;;;;;;;45.60;8.85;;;15.90;88.40;;;;;;5004556;28;20210;-83
2021/07/08 02:17:32;;;;;;;49.60;9.20;;;15.90;88.50;;;;;;5004036;28;20198;-83
2021/07/08 02:19:58;;;;;;;45.45;9.55;;;15.80;88.70;;;;;;4971861;28;20193;-83
2021/07/08 02:22:24;;;;;;;35.53;9.50;;;15.90;88.60;;;;;;4971768;28;20553;-83
2021/07/08 02:24:49;;;;;;;51.85;9.23;;;15.90;88.60;;;;;;4972855;28;20690;-83
2021/07/08 02:27:15;;;;;;;40.40;9.27;;;15.90;88.70;;;;;;4972774;28;20298;-83
2021/07/08 02:29:40;;;;;;;50.83;9.52;;;15.70;89.00;;;;;;4971729;28;20277;-83
2021/07/08 02:32:10;;;;;;;54.00;9.27;;;15.60;89.20;;;;;;5004068;28;20183;-82
2021/07/08 02:34:37;;;;;;;45.20;9.60;;;15.50;89.50;;;;;;4972811;28;20183;-82
2021/07/08 02:37:05;;;;;;;51.83;9.00;;;15.40;89.60;;;;;;4971548;28;20210;-82
2021/07/08 02:39:30;;;;;;;78.20;10.15;;;15.50;89.90;;;;;;4972789;28;20594;-83
2021/07/08 02:41:56;;;;;;;57.13;9.88;;;15.40;89.80;;;;;;4972724;28;20178;-82
2021/07/08 02:44:21;;;;;;;49.13;11.02;;;15.50;89.80;;;;;;4973203;28;20208;-82
2021/07/08 02:46:47;;;;;;;61.25;8.93;;;15.60;89.80;;;;;;4972657;28;20229;-82
2021/07/08 02:49:13;;;;;;;50.97;9.52;;;15.70;89.70;;;;;;4972677;28;20182;-82
2021/07/08 02:51:39;;;;;;;38.47;10.23;;;15.70;89.40;;;;;;5003806;28;20236;-82
2021/07/08 02:54:04;;;;;;;35.17;9.73;;;15.70;89.40;;;;;;4972851;28;20673;-82
2021/07/08 02:56:30;;;;;;;42.55;8.88;;;15.70;89.50;;;;;;4971227;28;20241;-82
2021/07/08 02:58:55;;;;;;;43.00;8.43;;;15.70;89.60;;;;;;4972457;28;20557;-82
2021/07/08 03:01:21;;;;;;;20.97;8.10;;;15.70;89.60;;;;;;4972702;28;20175;-82
2021/07/08 03:03:47;;;;;;;33.28;6.97;;;15.80;89.50;;;;;;4971144;28;20287;-82
2021/07/08 03:06:12;;;;;;;26.38;7.38;;;15.80;89.30;;;;;;4971042;28;20222;-82
2021/07/08 03:08:38;;;;;;;25.10;7.10;;;15.80;88.90;;;;;;5003553;28;20182;-83
2021/07/08 03:11:03;;;;;;;30.88;7.65;;;15.90;88.50;;;;;;4972270;28;20587;-83
2021/07/08 03:13:29;;;;;;;32.15;7.30;;;15.90;88.20;;;;;;4972268;28;20179;-83
2021/07/08 03:15:55;;;;;;;26.02;6.93;;;15.90;87.90;;;;;;5003614;28;20241;-82
2021/07/08 03:18:20;;;;;;;20.17;7.05;;;16.00;87.60;;;;;;4970997;28;20174;-82
2021/07/08 03:20:47;;;;;;;31.38;8.65;;;16.00;87.50;;;;;;4971018;28;20175;-82
2021/07/08 03:23:13;;;;;;;20.48;8.18;;;16.00;88.10;;;;;;4972145;28;20177;-82
2021/07/08 03:25:39;;;;;;;20.38;7.57;;;16.10;88.30;;;;;;4972207;28;20198;-82
2021/07/08 03:28:04;;;;;;;16.90;7.35;;;16.10;88.30;;;;;;4970716;28;20218;-82
2021/07/08 03:30:30;;;;;;;17.55;7.88;;;16.20;88.40;;;;;;4971444;28;20193;-82
2021/07/08 03:32:57;;;;;;;19.48;7.43;;;16.20;88.20;;;;;;4972062;28;20299;-82
2021/07/08 03:35:27;;;;;;;30.63;8.40;;;16.30;88.00;;;;;;4972225;28;20177;-82
2021/07/08 03:37:53;;;;;;;37.35;8.75;;;16.20;88.00;;;;;;4971083;28;20203;-82
2021/07/08 03:40:20;;;;;;;26.23;7.10;;;16.30;87.90;;;;;;4972326;28;20639;-83
2021/07/08 03:42:49;;;;;;;19.10;6.85;;;16.30;87.80;;;;;;5003191;28;20190;-82
2021/07/08 03:45:15;;;;;;;21.23;7.28;;;16.30;87.60;;;;;;4971774;28;20563;-83
2021/07/08 03:47:43;;;;;;;19.55;7.18;;;16.30;87.50;;;;;;4971734;28;20285;-83
2021/07/08 03:50:11;;;;;;;15.68;7.07;;;16.40;87.40;;;;;;5003038;28;20612;-83
2021/07/08 03:52:39;;;;;;;10.98;6.85;;;16.30;87.20;;;;;;4971682;28;20175;-83
2021/07/08 03:55:08;;;;;;;14.73;7.72;;;16.30;87.20;;;;;;5003020;28;20192;-83
2021/07/08 03:57:34;;;;;;;14.30;7.38;;;16.30;87.40;;;;;;4971548;28;20281;-83
2021/07/08 03:59:59;;;;;;;13.63;6.88;;;16.30;87.70;;;;;;4970453;28;20274;-82
2021/07/08 04:02:25;;;;;;;16.73;6.78;;;16.30;87.60;;;;;;4970408;28;20185;-82
2021/07/08 04:04:50;;;;;;;20.80;6.93;;;16.40;87.50;;;;;;4970372;28;20233;-82
2021/07/08 04:07:16;;;;;;;10.45;6.95;;;16.40;87.30;;;;;;4971562;28;20198;-82
2021/07/08 04:09:42;;;;;;;16.40;6.70;;;16.50;87.10;;;;;;4971539;28;20569;-82
2021/07/08 04:12:09;;;;;;;15.20;8.05;;;16.50;87.00;;;;;;4971625;28;20179;-83
2021/07/08 04:14:34;;;;;;;17.90;7.00;;;16.50;86.90;;;;;;5002992;28;20719;-83
2021/07/08 04:17:00;;;;;;;12.63;7.75;;;16.50;87.10;;;;;;4970223;28;20223;-83
2021/07/08 04:19:26;;;;;;;15.43;7.55;;;16.50;87.80;;;;;;5002770;28;20178;-82
2021/07/08 04:21:51;;;;;;;20.48;7.68;;;16.50;88.80;;;;;;4971476;28;20304;-82
2021/07/08 04:24:17;;;;;;;17.00;8.90;;;16.50;89.30;;;;;;4971687;28;20277;-82
2021/07/08 04:26:43;;;;;;;13.80;7.97;;;16.60;89.20;;;;;;4971294;28;20215;-82
2021/07/08 04:29:08;;;;;;;28.10;8.10;;;16.60;89.00;;;;;;5002901;28;20175;-83
2021/07/08 04:31:34;;;;;;;21.13;9.38;;;16.50;89.30;;;;;;4971182;28;20331;-82
2021/07/08 04:33:59;;;;;;;21.88;9.85;;;16.50;90.10;;;;;;4971314;28;20167;-82
2021/07/08 04:36:25;;;;;;;18.67;9.18;;;16.60;90.00;;;;;;4971373;28;20598;-83
2021/07/08 04:38:53;;;;;;;21.80;8.63;;;16.70;89.90;;;;;;4970029;28;20204;-83
2021/07/08 04:41:20;;;;;;;17.13;7.70;;;16.70;89.80;;;;;;4971036;28;20221;-82
2021/07/08 04:43:46;;;;;;;19.95;10.48;;;16.70;89.50;;;;;;5005872;28;20178;-82
2021/07/08 04:46:12;;;;;;;12.52;8.35;;;16.70;89.40;;;;;;4974358;28;20206;-82
2021/07/08 04:48:38;;;;;;;20.60;9.25;;;16.90;89.40;;;;;;5005735;28;20186;-82
2021/07/08 04:51:04;;;;;;;16.00;9.85;;;16.90;90.00;;;;;;4974780;28;20266;-82
2021/07/08 04:53:30;;;;;;;23.63;9.32;;;16.90;90.30;;;;;;4974405;28;20175;-82
2021/07/08 04:55:56;;;;;;;22.85;8.82;;;17.00;90.40;;;;;;4974351;28;20661;-83
2021/07/08 04:58:22;;;;;;;18.27;8.77;;;17.00;90.40;;;;;;4974564;28;20171;-83
2021/07/08 05:00:48;;;;;;;11.75;9.65;;;17.10;90.30;;;;;;4973158;28;20175;-83
2021/07/08 05:03:13;;;;;;;23.10;10.77;;;17.20;90.50;;;;;;5005653;28;20600;-82
2021/07/08 05:05:39;;;;;;;24.77;10.25;;;17.20;90.80;;;;;;4972941;28;20226;-83
2021/07/08 05:08:05;;;;;;;25.15;10.07;;;17.20;90.70;;;;;;5005541;28;20195;-83
2021/07/08 05:10:31;;;;;;;20.98;8.32;;;17.20;90.60;;;;;;5005828;28;20179;-83
2021/07/08 05:12:57;;;;;;;21.67;10.15;;;17.20;90.50;;;;;;4974324;28;20167;-83
2021/07/08 05:15:23;;;;;;;18.13;10.38;;;17.30;90.50;;;;;;4972943;28;20535;-82
2021/07/08 05:17:49;;;;;;;25.42;10.23;;;17.40;90.50;;;;;;4974054;28;20555;-83
2021/07/08 05:20:16;;;;;;;29.90;10.38;;;17.40;90.70;;;;;;4972802;28;20236;-83
2021/07/08 05:22:45;;;;;;;26.90;11.63;;;17.50;90.80;;;;;;4972782;28;20179;-83
2021/07/08 05:25:14;;;;;;;35.85;11.05;;;17.50;91.10;;;;;;4972631;28;20203;-82
2021/07/08 05:27:40;;;;;;;31.27;10.50;;;17.50;91.20;;;;;;5004961;28;20210;-82
2021/07/08 05:30:07;;;;;;;26.65;10.15;;;17.60;91.20;;;;;;5005108;28;20175;-83
2021/07/08 05:32:33;;;;;;;19.00;10.45;;;17.60;91.20;;;;;;4973822;28;20175;-83
2021/07/08 05:34:58;;;;;;;20.05;11.25;;;17.70;91.20;;;;;;5005272;28;20540;-83
2021/07/08 05:37:24;;;;;;;18.92;10.18;;;17.70;91.10;;;;;;5004989;28;20195;-83
2021/07/08 05:39:50;;;;;;;15.77;10.40;;;17.80;91.10;;;;;;4973752;28;20193;-82
2021/07/08 05:42:15;;;;;;;17.15;9.65;;;17.80;91.10;;;;;;4973694;28;20258;-82
2021/07/08 05:44:41;;;;;;;17.48;9.27;;;17.90;91.00;;;;;;4972425;28;20566;-83
2021/07/08 05:47:07;;;;;;;22.60;10.40;;;17.90;91.00;;;;;;4973523;28;20211;-82
2021/07/08 05:49:32;;;;;;;14.00;9.55;;;18.00;90.80;;;;;;4973556;28;20220;-82
2021/07/08 05:51:58;;;;;;;18.80;10.23;;;18.00;90.70;;;;;;4972298;28;20203;-82
2021/07/08 05:54:24;;;;;;;21.73;11.63;;;18.10;90.70;;;;;;4972899;28;20700;-83
2021/07/08 05:56:49;;;;;;;13.88;10.95;;;18.10;90.60;;;;;;4972248;28;20233;-82
2021/07/08 05:59:15;;;;;;;25.35;12.65;;;18.20;90.70;;;;;;4972270;28;20217;-83
2021/07/08 06:01:40;;;;;;;19.55;10.38;;;18.20;90.90;;;;;;4973359;28;20175;-83
2021/07/08 06:04:06;;;;;;;17.05;10.32;;;18.30;91.00;;;;;;4973306;28;20207;-83
2021/07/08 06:06:31;;;;;;;21.20;10.27;;;18.30;90.80;;;;;;4973345;28;20207;-85
2021/07/08 06:08:57;;;;;;;15.95;10.10;;;18.40;90.60;;;;;;5004562;28;20179;-85
2021/07/08 06:11:23;;;;;;;27.55;10.45;;;18.40;90.20;;;;;;4972039;28;20179;-85
2021/07/08 06:13:48;;;;;;;20.30;9.75;;;18.40;90.10;;;;;;4973309;28;20167;-85
2021/07/08 06:16:14;;;;;;;23.10;9.88;;;18.60;90.20;;;;;;4973098;28;20793;-85
2021/07/08 06:18:39;;;;;;;21.58;9.60;;;18.60;90.00;;;;;;4973119;28;20171;-86
2021/07/08 06:21:06;;;;;;;16.80;8.93;;;18.70;90.00;;;;;;4973130;28;20257;-85
2021/07/08 06:23:32;;;;;;;21.20;9.57;;;18.70;89.80;;;;;;4971786;28;20701;-85
2021/07/08 06:25:59;;;;;;;21.88;9.55;;;18.70;88.80;;;;;;4972811;28;20252;-85
2021/07/08 06:28:25;;;;;;;20.90;8.55;;;18.80;88.90;;;;;;5004314;28;20179;-85
2021/07/08 06:30:51;;;;;;;32.60;10.40;;;18.90;88.90;;;;;;4972976;28;20185;-85
2021/07/08 06:33:16;;;;;;;20.58;9.02;;;19.00;89.00;;;;;;4973181;28;20271;-85
2021/07/08 06:35:42;;;;;;;22.00;9.68;;;19.10;89.10;;;;;;5004047;28;20183;-85
2021/07/08 06:38:08;;;;;;;15.15;9.27;;;19.20;88.80;;;;;;4971514;28;20202;-85
2021/07/08 06:40:34;;;;;;;20.95;8.13;;;19.30;88.40;;;;;;5004121;28;20190;-85
2021/07/08 06:43:00;;;;;;;20.98;8.02;;;19.30;87.80;;;;;;4972814;28;20175;-85
2021/07/08 06:45:27;;;;;;;18.73;7.22;;;19.40;87.30;;;;;;4972656;28;20198;-85
2021/07/08 06:48:02;;;;;;;13.88;7.50;;;19.50;86.90;;;;;;5003996;28;20195;-85
2021/07/08 06:50:28;;;;;;;14.73;7.00;;;19.50;86.70;;;;;;4972596;28;20150;-85
2021/07/08 06:52:54;;;;;;;14.63;7.18;;;19.70;85.90;;;;;;4972655;28;20228;-85
2021/07/08 06:55:20;;;;;;;14.48;7.32;;;19.60;85.10;;;;;;5003805;28;20179;-85
2021/07/08 06:57:53;;;;;;;11.77;6.65;;;19.70;85.70;;;;;;5003374;28;20213;-85
2021/07/08 07:00:25;;;;;;;15.95;8.32;;;19.70;85.80;;;;;;4972787;28;20242;-85
2021/07/08 07:02:55;;;;;;;13.90;7.05;;;19.70;86.10;;;;;;4973034;28;20160;-85
2021/07/08 07:05:22;;;;;;;14.63;7.32;;;19.70;85.40;;;;;;5002585;28;20332;-85
2021/07/08 07:07:48;;;;;;;15.43;6.85;;;19.70;85.10;;;;;;4972336;28;20194;-86
2021/07/08 07:10:15;;;;;;;16.00;6.88;;;19.70;85.30;;;;;;4972482;28;20164;-85
2021/07/08 07:12:52;;;;;;;11.82;6.95;;;19.70;85.40;;;;;;4972311;28;20171;-85
2021/07/08 07:15:22;;;;;;;14.40;6.72;;;19.80;85.30;;;;;;4972561;28;20163;-87
2021/07/08 07:17:47;;;;;;;14.23;6.82;;;19.80;84.50;;;;;;4972282;28;20343;-87
2021/07/08 07:20:16;;;;;;;18.08;7.22;;;19.80;85.00;;;;;;5003539;28;20207;-87
2021/07/08 07:22:47;;;;;;;14.05;6.90;;;19.80;84.80;;;;;;5003377;28;20263;-88
2021/07/08 07:25:14;;;;;;;11.93;6.82;;;19.80;84.30;;;;;;4970807;28;20204;-88
2021/07/08 07:27:40;;;;;;;12.48;6.57;;;19.80;84.70;;;;;;4972104;28;20281;-87
2021/07/08 07:30:07;;;;;;;11.25;7.32;;;19.90;84.60;;;;;;4971998;28;20171;-87
2021/07/08 07:32:34;;;;;;;10.88;6.80;;;19.80;84.60;;;;;;4970887;28;20179;-87
2021/07/08 07:35:00;;;;;;;16.27;7.97;;;19.70;85.80;;;;;;4972007;28;20548;-87
2021/07/08 07:37:26;;;;;;;16.45;8.48;;;19.60;86.30;;;;;;4970995;28;20579;-87
2021/07/08 07:39:53;;;;;;;14.90;8.50;;;19.50;86.10;;;;;;4971896;28;20171;-87
2021/07/08 07:42:28;;;;;;;16.10;7.85;;;19.50;86.50;;;;;;5003185;28;20182;-84
2021/07/08 07:44:54;;;;;;;19.75;7.90;;;19.50;86.30;;;;;;4971088;28;20186;-84
2021/07/08 07:47:19;;;;;;;16.40;8.85;;;19.50;86.70;;;;;;5003005;28;20230;-85
2021/07/08 07:49:45;;;;;;;19.95;9.68;;;19.50;88.20;;;;;;4970631;28;20179;-85
2021/07/08 07:52:13;;;;;;;20.40;10.30;;;19.50;89.00;;;;;;4971751;28;20216;-85
2021/07/08 07:54:39;;;;;;;13.13;8.98;;;19.40;89.80;;;;;;4970587;28;20175;-84
2021/07/08 07:57:05;;;;;;;16.73;9.32;;;19.30;89.70;;;;;;4972063;28;20203;-86
2021/07/08 07:59:35;;;;;;;15.07;10.27;;;19.20;90.50;;;;;;4971763;28;20183;-86
2021/07/08 08:02:02;;;;;;;17.13;10.48;;;19.20;90.50;;;;;;4971971;28;20171;-86
2021/07/08 08:04:32;;;;;;;15.45;8.82;;;19.30;90.90;;;;;;4970436;28;20171;-84
2021/07/08 08:09:42;;;;;;;18.08;10.43;;;19.50;90.00;;;;;;4971838;28;20246;-83
2021/07/08 08:12:09;;;;;;;19.23;10.93;;;19.60;89.80;;;;;;4971571;28;20253;-83
2021/07/08 08:14:35;;;;;;;12.82;8.75;;;19.60;89.10;;;;;;5002722;28;20174;-83
2021/07/08 08:17:01;;;;;;;18.75;9.43;;;19.70;88.70;;;;;;4973702;28;20597;-84
2021/07/08 08:19:27;;;;;;;16.65;9.30;;;19.60;88.30;;;;;;4973663;28;20178;-84
2021/07/08 08:21:53;;;;;;;12.25;8.68;;;19.60;88.20;;;;;;4974931;28;20596;-83
2021/07/08 08:24:19;;;;;;;24.80;10.35;;;19.70;88.50;;;;;;5006109;28;20186;-83
2021/07/08 08:26:50;;;;;;;24.67;9.57;;;19.80;89.30;;;;;;4974540;28;20214;-84
2021/07/08 08:29:16;;;;;;;12.98;9.38;;;20.00;89.20;;;;;;4975016;28;20159;-84
2021/07/08 08:31:41;;;;;;;14.90;9.20;;;20.30;89.10;;;;;;4973583;28;20175;-83
2021/07/08 08:34:07;;;;;;;9.32;8.32;;;20.30;87.40;;;;;;4974674;28;20206;-84
2021/07/08 08:36:33;;;;;;;13.65;8.65;;;20.40;86.20;;;;;;4974520;28;20191;-84
2021/07/08 08:38:58;;;;;;;15.00;9.07;;;20.50;87.20;;;;;;4973431;28;20187;-84
2021/07/08 08:41:24;;;;;;;14.68;6.60;;;20.50;86.50;;;;;;4973281;28;20182;-83
2021/07/08 08:43:49;;;;;;;18.10;8.30;;;20.50;83.50;;;;;;4973656;28;20190;-84
2021/07/08 08:46:15;;;;;;;13.60;7.38;;;20.50;84.50;;;;;;4974499;28;20740;-84
2021/07/08 08:48:41;;;;;;;14.23;6.10;;;20.70;83.80;;;;;;4974774;28;20171;-84
2021/07/08 08:51:06;;;;;;;10.18;5.68;;;20.70;82.40;;;;;;4973352;28;20182;-83
2021/07/08 08:53:32;;;;;;;14.23;6.35;;;20.70;82.20;;;;;;5067546;23;20186;-84
2021/07/08 08:55:58;;;;;;;12.50;6.65;;;20.80;82.30;;;;;;5058467;28;20305;-85
2021/07/08 08:58:24;;;;;;;15.20;5.32;;;20.90;83.10;;;;;;5059353;28;20210;-84
2021/07/08 09:00:57;;;;;;;11.93;5.60;;;20.90;81.20;;;;;;5076687;28;20217;-85
2021/07/08 09:03:25;;;;;;;9.25;4.78;;;20.90;80.70;;;;;;5076529;28;20156;-85
2021/07/08 09:06:04;;;;;;;12.18;6.15;;;21.00;78.80;;;;;;5059170;28;20287;-84
2021/07/08 09:08:31;;;;;;;10.57;6.03;;;21.00;80.60;;;;;;5058577;28;20193;-84
2021/07/08 09:11:16;;;;;;;10.98;5.75;;;21.00;82.10;;;;;;5058538;28;20179;-85
2021/07/08 09:13:42;;;;;;;17.35;6.50;;;21.00;82.00;;;;;;5058181;28;20199;-84
2021/07/08 09:16:24;;;;;;;12.00;5.80;;;21.00;81.00;;;;;;5058070;28;20171;-85
2021/07/08 09:19:08;;;;;;;12.48;5.68;;;21.20;81.40;;;;;;5076467;28;20178;-85
2021/07/08 09:21:40;;;;;;;11.60;5.78;;;21.30;80.20;;;;;;5076396;28;20201;-85
2021/07/08 09:24:15;;;;;;;14.38;5.18;;;21.40;81.20;;;;;;5057825;28;20286;-85
2021/07/08 09:26:44;;;;;;;12.13;5.03;;;21.50;79.70;;;;;;5058315;28;20248;-85
2021/07/08 09:29:16;;;;;;;9.80;5.45;;;21.70;79.80;;;;;;5075035;28;20171;-85
2021/07/08 09:31:54;;;;;;;8.48;3.95;;;21.80;79.20;;;;;;5074811;28;20160;-84
2021/07/08 09:34:26;;;;;;;4.35;3.47;;;21.80;76.80;;;;;;5057629;28;20195;-85
2021/07/08 09:37:08;;;;;;;11.38;4.10;;;21.90;76.00;;;;;;5075734;28;20164;-84
2021/07/08 09:39:36;;;;;;;7.65;2.80;;;22.00;76.20;;;;;;5057748;28;20171;-85
2021/07/08 09:42:03;;;;;;;6.60;3.20;;;22.10;74.30;;;;;;5057653;28;20175;-85
2021/07/08 09:44:29;;;;;;;8.02;3.00;;;22.20;73.20;;;;;;5075621;28;20278;-85
2021/07/08 09:46:57;;;;;;;11.45;3.22;;;22.20;73.50;;;;;;5075778;28;20651;-85
2021/07/08 09:49:24;;;;;;;5.93;2.95;;;22.40;74.70;;;;;;5075423;28;20171;-85
2021/07/08 09:51:50;;;;;;;9.38;2.80;;;22.30;73.90;;;;;;5075530;28;20172;-85
2021/07/08 09:54:43;;;;;;;8.85;3.13;;;22.50;72.30;;;;;;5057885;28;20207;-84
2021/07/08 09:57:10;;;;;;;10.50;3.42;;;22.70;70.50;;;;;;5057834;28;20167;-84
2021/07/08 09:59:36;;;;;;;12.38;2.67;;;22.70;71.50;;;;;;5057409;28;20266;-85
2021/07/08 10:02:03;;;;;;;9.45;3.10;;;22.80;71.40;;;;;;5057442;28;20275;-84
2021/07/08 10:04:28;;;;;;;10.52;3.60;;;23.00;70.80;;;;;;5075276;28;20197;-85
2021/07/08 10:06:55;;;;;;;11.05;3.20;;;23.20;71.50;;;;;;5075223;28;20791;-84
2021/07/08 10:09:23;;;;;;;6.97;2.40;;;23.50;70.10;;;;;;5075139;28;20174;-84
2021/07/08 10:11:51;;;;;;;7.25;2.40;;;23.50;66.00;;;;;;5057666;28;20262;-85
2021/07/08 10:14:18;;;;;;;7.55;2.30;;;23.60;64.70;;;;;;5075026;28;20282;-84
2021/07/08 10:16:49;;;;;;;7.70;2.60;;;23.70;65.80;;;;;;5075054;28;20203;-85
2021/07/08 10:19:18;;;;;;;8.10;2.40;;;23.80;65.60;;;;;;5057176;28;20167;-84
2021/07/08 10:21:46;;;;;;;5.85;1.88;;;23.80;65.70;;;;;;5075542;28;20172;-85
2021/07/08 10:24:13;;;;;;;4.40;1.80;;;23.80;63.50;;;;;;5074786;28;20191;-84
2021/07/08 10:26:39;;;;;;;5.18;2.15;;;23.80;61.50;;;;;;5056731;28;20199;-85
2021/07/08 10:29:08;;;;;;;9.02;2.00;;;23.80;60.60;;;;;;5073366;28;20640;-83
2021/07/08 10:31:34;;;;;;;9.52;2.40;;;23.80;62.00;;;;;;5074820;28;20168;-84
2021/07/08 10:34:13;;;;;;;8.77;2.15;;;23.70;64.30;;;;;;5073277;28;20200;-84
2021/07/08 10:36:41;;;;;;;3.83;1.63;;;23.70;63.20;;;;;;5056542;28;20171;-84
2021/07/08 10:39:10;;;;;;;3.17;1.80;;;23.70;63.50;;;;;;5074276;28;20172;-83
2021/07/08 10:41:36;;;;;;;5.20;1.88;;;23.80;62.40;;;;;;5073297;28;20649;-83
2021/07/08 10:44:02;;;;;;;5.45;1.90;;;23.80;60.60;;;;;;5074454;28;20274;-85
2021/07/08 10:46:36;;;;;;;5.43;2.25;;;23.80;62.60;;;;;;5074226;28;20739;-85
2021/07/08 10:49:14;;;;;;;11.75;2.60;;;23.90;62.60;;;;;;5056246;28;20206;-85
2021/07/08 10:51:43;;;;;;;8.57;2.42;;;24.10;63.00;;;;;;5074241;28;20198;-85
2021/07/08 10:54:28;;;;;;;6.38;2.08;;;24.10;62.60;;;;;;5056124;28;20207;-84
2021/07/08 10:56:55;;;;;;;4.68;2.05;;;24.00;61.70;;;;;;5074127;28;20214;-84
2021/07/08 10:59:21;;;;;;;6.95;2.38;;;24.00;62.60;;;;;;5056376;28;20553;-84
2021/07/08 11:01:54;;;;;;;6.38;2.22;;;24.00;61.90;;;;;;5056118;28;20175;-84
2021/07/08 11:04:50;;;;;;;9.30;2.15;;;24.10;61.30;;;;;;5056041;28;20403;-84
2021/07/08 11:07:21;;;;;;;11.50;1.85;;;24.20;59.10;;;;;;5074437;28;20218;-84
2021/07/08 11:10:05;;;;;;;6.20;2.00;;;24.10;59.60;;;;;;5073966;28;20171;-84
2021/07/08 11:12:33;;;;;;;5.80;1.83;;;24.30;58.70;;;;;;5073855;28;20217;-84
2021/07/08 11:15:00;;;;;;;5.93;1.75;;;24.50;58.60;;;;;;5073659;28;20192;-84
2021/07/08 11:17:26;;;;;;;5.00;1.70;;;24.70;56.10;;;;;;5073802;28;20237;-84
2021/07/08 11:19:53;;;;;;;6.20;2.00;;;24.80;58.00;;;;;;5055851;28;20675;-84
2021/07/08 11:22:22;;;;;;;9.35;2.17;;;24.90;55.90;;;;;;5073781;28;20254;-85
2021/07/08 11:24:53;;;;;;;7.28;1.70;;;25.00;57.00;;;;;;5073585;28;20701;-84
2021/07/08 11:27:32;;;;;;;3.33;1.85;;;25.20;57.60;;;;;;5055643;28;20211;-85
2021/07/08 11:30:01;;;;;;;6.05;2.03;;;25.30;56.60;;;;;;5073565;28;20238;-85
2021/07/08 11:32:43;;;;;;;4.97;1.92;;;25.30;53.90;;;;;;5055706;28;20182;-84
2021/07/08 11:35:29;;;;;;;7.35;1.80;;;25.30;53.90;;;;;;5073600;28;20191;-84
2021/07/08 11:38:07;;;;;;;4.32;1.63;;;25.50;53.90;;;;;;5073593;28;20638;-85
2021/07/08 11:40:36;;;;;;;3.50;1.58;;;25.70;56.60;;;;;;5073548;28;20160;-85
2021/07/08 11:43:15;;;;;;;4.43;1.48;;;25.70;55.40;;;;;;5073751;28;20164;-84
2021/07/08 11:45:41;;;;;;;4.18;1.73;;;25.70;50.50;;;;;;5073654;28;20195;-84
2021/07/08 11:48:07;;;;;;;6.88;2.03;;;25.60;52.00;;;;;;5055465;28;20175;-85
2021/07/08 11:50:35;;;;;;;4.60;1.77;;;25.70;52.90;;;;;;5054768;28;20171;-85
2021/07/08 11:53:05;;;;;;;8.57;1.77;;;25.90;52.60;;;;;;5073506;28;20225;-85
2021/07/08 11:55:31;;;;;;;5.82;2.22;;;25.90;54.20;;;;;;5073104;28;20222;-84
2021/07/08 11:57:59;;;;;;;8.65;2.22;;;25.90;50.50;;;;;;5073210;28;20163;-85
2021/07/08 12:00:30;;;;;;;6.25;1.80;;;26.00;50.80;;;;;;5055118;28;20195;-85
2021/07/08 12:02:57;;;;;;;8.10;1.70;;;26.30;51.10;;;;;;5073234;28;20160;-86
2021/07/08 12:05:23;;;;;;;5.18;2.05;;;26.70;49.00;;;;;;5054952;28;20213;-86
2021/07/08 12:08:02;;;;;;;4.25;1.58;;;26.50;50.00;;;;;;5073359;28;20250;-86
2021/07/08 12:10:32;;;;;;;5.03;1.55;;;27.10;50.80;;;;;;5055040;28;20233;-85
2021/07/08 12:12:58;;;;;;;6.25;1.90;;;27.30;46.80;;;;;;5055017;28;20177;-86
2021/07/08 12:15:26;;;;;;;6.55;1.80;;;27.30;46.70;;;;;;5073568;28;20187;-85
2021/07/08 12:17:54;;;;;;;3.42;1.52;;;27.20;48.20;;;;;;5073059;28;20549;-85
2021/07/08 12:20:20;;;;;;;5.72;2.00;;;26.90;49.00;;;;;;5073159;28;20167;-85
2021/07/08 12:23:02;;;;;;;6.38;1.80;;;26.60;48.20;;;;;;5055055;28;20187;-85
2021/07/08 12:25:28;;;;;;;5.97;1.75;;;26.50;47.30;;;;;;5054808;28;20576;-85
2021/07/08 12:27:56;;;;;;;8.10;2.47;;;26.50;48.70;;;;;;5054998;28;20176;-85
2021/07/08 12:30:30;;;;;;;5.15;1.70;;;26.70;49.00;;;;;;5072933;28;20182;-85
2021/07/08 12:33:09;;;;;;;6.57;2.03;;;26.60;48.30;;;;;;5074626;28;20548;-86
2021/07/08 12:35:47;;;;;;;9.55;2.05;;;26.70;47.20;;;;;;5056030;28;20198;-86
2021/07/08 12:38:18;;;;;;;4.13;1.90;;;26.80;49.90;;;;;;5073052;28;20179;-87
2021/07/08 12:40:46;;;;;;;7.38;1.77;;;27.10;51.30;;;;;;5073808;28;20247;-85
2021/07/08 12:43:14;;;;;;;4.35;1.80;;;27.30;51.40;;;;;;5072678;28;20175;-85